createdAt,value
2019-05-21T00:41:15.977Z,62.81
2019-05-21T00:43:57.042Z,62.86
2019-05-21T00:46:24.731Z,62.85
2019-05-21T00:48:52.280Z,62.96
2019-05-21T00:51:20.010Z,63.00
2019-05-21T00:53:47.725Z,63.03
2019-05-21T00:56:16.743Z,63.06
2019-05-21T00:58:44.238Z,63.09
2019-05-21T01:01:12.095Z,63.11
2019-05-21T01:03:43.136Z,63.13
2019-05-21T01:06:08.981Z,63.14
2019-05-21T01:08:36.544Z,63.15
2019-05-21T01:11:04.345Z,63.16
2019-05-21T01:13:31.948Z,63.17
2019-05-21T01:15:59.714Z,63.18
2019-05-21T01:18:27.298Z,63.17
2019-05-21T01:20:55.254Z,63.18
2019-05-21T01:23:22.814Z,63.17
2019-05-21T01:25:50.257Z,63.17
2019-05-21T01:28:17.906Z,63.18
2019-05-21T01:30:45.457Z,63.17
2019-05-21T01:33:12.858Z,63.18
2019-05-21T01:35:40.306Z,63.19
2019-05-21T01:38:07.804Z,63.21
2019-05-21T01:40:35.236Z,63.22
2019-05-21T01:43:03.741Z,63.28
2019-05-21T01:45:31.270Z,63.31
2019-05-21T01:47:59.080Z,63.33
2019-05-21T01:50:26.693Z,63.33
2019-05-21T01:52:54.127Z,63.32
2019-05-21T01:55:27.672Z,63.32
2019-05-21T01:58:07.959Z,63.34
2019-05-21T03:50:49.187Z,63.69
2019-05-21T03:53:16.966Z,63.69
2019-05-21T03:55:44.399Z,63.79
2019-05-21T03:58:11.870Z,63.83
2019-05-21T04:00:39.394Z,63.85
2019-05-21T04:03:06.913Z,63.86
2019-05-21T04:05:34.416Z,63.88
2019-05-21T04:08:02.612Z,63.88
2019-05-21T04:10:30.266Z,63.87
2019-05-21T04:13:07.427Z,63.89
2019-05-21T04:15:43.852Z,63.89
2019-05-21T04:18:16.386Z,63.92
2019-05-21T04:20:43.860Z,63.97
2019-05-21T04:23:11.513Z,63.99
2019-05-21T04:25:39.095Z,64.00
2019-05-21T04:28:06.740Z,64.00
2019-05-21T04:30:34.377Z,64.00
2019-05-21T04:33:01.857Z,64.03
2019-05-21T04:35:29.642Z,64.01
2019-05-21T04:37:59.638Z,64.06
2019-05-21T04:40:27.698Z,64.05
2019-05-21T04:42:55.145Z,64.05
2019-05-21T04:45:22.661Z,64.07
2019-05-21T04:47:50.569Z,64.07
2019-05-21T04:50:18.216Z,64.08
2019-05-21T04:52:45.951Z,64.05
2019-05-21T04:55:13.755Z,64.07
2019-05-21T04:57:41.213Z,64.07
2019-05-21T05:00:09.436Z,64.10
2019-05-21T05:02:37.282Z,64.11
2019-05-21T05:05:05.371Z,64.12
2019-05-21T05:07:32.820Z,64.11
2019-05-21T05:10:00.595Z,64.14
2019-05-21T05:12:28.132Z,64.15
2019-05-21T05:14:55.682Z,64.13
2019-05-21T05:17:23.412Z,64.12
2019-05-21T05:19:51.240Z,64.13
2019-05-21T05:22:18.941Z,64.16
2019-05-21T05:24:46.516Z,64.19
2019-05-21T05:27:15.283Z,64.19
2019-05-21T05:29:42.775Z,64.22
2019-05-21T05:32:10.153Z,64.26
2019-05-21T05:34:37.715Z,64.27
2019-05-21T05:37:05.320Z,64.27
2019-05-21T05:39:33.200Z,64.25
2019-05-21T05:42:00.760Z,64.24
2019-05-21T05:44:28.534Z,64.25
2019-05-21T05:46:56.261Z,64.28
2019-05-21T05:49:29.990Z,64.29
2019-05-21T05:51:57.884Z,64.30
2019-05-21T05:54:25.617Z,64.31
2019-05-21T05:56:53.229Z,64.30
2019-05-21T05:59:21.806Z,64.29
2019-05-21T06:01:49.348Z,64.35
2019-05-21T06:04:16.886Z,64.36
2019-05-21T06:06:44.370Z,64.38
2019-05-21T06:09:11.794Z,64.43
2019-05-21T06:11:39.387Z,64.46
2019-05-21T06:14:06.935Z,64.46
2019-05-21T06:16:34.551Z,64.49
2019-05-21T06:19:02.167Z,64.51
2019-05-21T06:21:29.706Z,64.56
2019-05-21T06:23:58.132Z,64.58
2019-05-21T06:26:25.806Z,64.60
2019-05-21T06:28:53.989Z,64.64
2019-05-21T06:31:21.510Z,64.70
2019-05-21T06:33:49.131Z,64.76
2019-05-21T06:36:16.562Z,64.80
2019-05-21T06:38:44.455Z,64.79
2019-05-21T06:41:12.052Z,64.83
2019-05-21T06:43:39.688Z,64.87
2019-05-21T06:46:07.259Z,64.88
2019-05-21T06:48:34.834Z,64.89
2019-05-21T06:51:02.423Z,64.92
2019-05-21T06:53:33.378Z,64.93
2019-05-21T06:56:08.240Z,64.93
2019-05-21T06:58:35.738Z,64.92
2019-05-21T07:01:28.742Z,64.94
2019-05-21T07:03:52.848Z,64.97
2019-05-21T07:06:30.956Z,64.99
2019-05-21T07:08:59.931Z,65.05
2019-05-21T07:11:27.834Z,65.07
2019-05-21T07:13:57.284Z,65.11
2019-05-21T07:16:24.928Z,65.15
2019-05-21T07:18:55.549Z,65.17
2019-05-21T07:21:23.496Z,65.18
2019-05-21T07:23:51.152Z,65.20
2019-05-21T07:26:18.870Z,65.28
2019-05-21T07:28:46.562Z,65.31
2019-05-21T10:54:41.647Z,66.21
2019-05-21T10:57:09.789Z,66.22
2019-05-21T10:59:37.770Z,66.28
2019-05-21T11:02:19.184Z,66.34
2019-05-21T11:05:18.718Z,66.35
2019-05-21T11:07:46.978Z,66.36
2019-05-21T11:10:15.852Z,66.27
2019-05-21T11:12:44.121Z,66.23
2019-05-21T11:15:12.944Z,66.20
2019-05-21T11:17:59.000Z,66.19
2019-05-21T11:20:13.398Z,66.17
2019-05-21T11:22:41.771Z,66.22
2019-05-21T11:25:10.624Z,66.24
2019-05-21T11:27:39.577Z,66.26
2019-05-21T11:30:08.598Z,66.31
2019-05-21T11:32:37.774Z,66.36
2019-05-21T11:35:07.768Z,66.36
2019-05-21T11:37:36.357Z,66.39
2019-05-21T11:40:08.352Z,66.34
2019-05-21T11:42:35.384Z,66.31
2019-05-21T11:45:04.114Z,66.35
2019-05-21T11:47:32.106Z,66.37
2019-05-21T11:50:01.917Z,66.43
2019-05-21T11:52:29.958Z,66.41
2019-05-21T11:54:58.030Z,66.38
2019-05-21T11:57:26.100Z,66.36
2019-05-21T11:59:54.073Z,66.38
2019-05-21T12:02:22.270Z,66.44
2019-05-21T12:04:50.281Z,66.52
2019-05-21T12:07:18.341Z,66.55
2019-05-21T12:09:47.061Z,66.51
2019-05-21T12:12:15.116Z,66.48
2019-05-21T12:14:43.397Z,66.56
2019-05-21T12:17:11.431Z,66.54
2019-05-21T12:19:39.522Z,66.58
2019-05-21T12:22:07.656Z,66.55
2019-05-21T12:24:35.667Z,66.46
2019-05-21T12:27:03.929Z,66.39
2019-05-21T12:29:34.260Z,66.36
2019-05-21T12:32:03.036Z,66.41
2019-05-21T12:34:31.042Z,66.44
2019-05-21T12:36:59.111Z,66.54
2019-05-21T12:39:27.154Z,66.56
2019-05-21T12:41:55.638Z,66.59
2019-05-21T12:44:23.960Z,66.64
2019-05-21T12:46:52.028Z,66.71
2019-05-21T12:49:20.048Z,66.69
2019-05-21T12:51:48.083Z,66.61
2019-05-21T12:54:16.120Z,66.57
2019-05-21T12:56:44.225Z,66.57
2019-05-21T12:59:12.303Z,66.57
2019-05-21T13:01:40.515Z,66.56
2019-05-21T13:04:10.714Z,66.57
2019-05-21T13:06:39.091Z,66.60
2019-05-21T13:09:08.452Z,66.66
2019-05-21T13:11:38.108Z,66.71
2019-05-21T13:14:06.295Z,66.73
2019-05-21T13:16:34.260Z,66.74
2019-05-21T13:19:03.266Z,66.79
2019-05-21T13:21:31.286Z,66.81
2019-05-21T13:23:59.422Z,66.82
2019-05-21T13:26:28.843Z,66.77
2019-05-21T13:28:57.208Z,66.82
2019-05-21T13:31:25.527Z,66.83
2019-05-21T13:33:53.966Z,66.86
2019-05-21T13:36:22.393Z,66.85
2019-05-21T13:38:50.904Z,66.84
2019-05-21T13:41:19.279Z,66.85
2019-05-21T13:43:47.353Z,66.83
2019-05-21T13:46:15.337Z,66.88
2019-05-21T13:48:46.923Z,66.90
2019-05-21T13:51:15.595Z,66.87
2019-05-21T13:53:45.105Z,66.85
2019-05-21T13:56:14.707Z,66.86
2019-05-21T13:58:43.177Z,66.89
2019-05-21T14:01:15.729Z,66.84
2019-05-21T14:03:43.176Z,66.88
2019-05-21T14:06:11.422Z,66.84
2019-05-21T14:08:39.957Z,66.82
2019-05-21T14:11:08.091Z,66.85
2019-05-21T14:13:36.990Z,66.85
2019-05-21T14:16:05.106Z,66.87
2019-05-21T14:18:33.399Z,66.85
2019-05-21T14:21:01.523Z,66.92
2019-05-21T14:23:29.593Z,66.94
2019-05-21T14:25:57.639Z,67.01
2019-05-21T14:28:25.980Z,67.09
2019-05-21T14:30:54.014Z,67.18
2019-05-21T14:33:22.245Z,67.22
2019-05-21T14:35:50.252Z,67.23
2019-05-21T14:38:18.529Z,67.20
2019-05-21T14:40:47.732Z,67.21
2019-05-21T14:43:15.784Z,67.21
2019-05-21T14:45:43.808Z,67.24
2019-05-21T14:48:11.939Z,67.23
2019-05-21T14:50:39.975Z,67.24
2019-05-21T14:53:08.039Z,67.27
2019-05-21T14:55:36.072Z,67.25
2019-05-21T14:58:04.495Z,67.25
2019-05-21T15:00:34.956Z,67.21
2019-05-21T15:03:03.611Z,67.16
2019-05-21T15:05:32.792Z,67.06
2019-05-21T15:08:02.584Z,67.04
2019-05-21T15:10:46.834Z,67.06
2019-05-21T15:13:05.499Z,67.08
2019-05-21T15:15:31.146Z,67.10
2019-05-21T15:17:59.425Z,67.15
2019-05-21T15:20:37.773Z,67.22
2019-05-21T15:23:05.901Z,67.24
2019-05-21T15:25:33.961Z,67.25
2019-05-21T15:28:04.838Z,67.29
2019-05-21T15:30:33.024Z,67.31
2019-05-21T15:33:01.122Z,67.33
2019-05-21T15:35:29.690Z,67.40
2019-05-21T15:37:58.178Z,67.42
2019-05-21T15:40:26.325Z,67.44
2019-05-21T15:42:54.416Z,67.49
2019-05-21T15:45:22.747Z,67.54
2019-05-21T15:47:50.839Z,67.58
2019-05-21T15:50:18.950Z,67.60
2019-05-21T15:52:46.923Z,67.59
2019-05-21T15:55:15.143Z,67.60
2019-05-21T15:57:43.236Z,67.63
2019-05-21T16:00:12.065Z,67.62
2019-05-21T16:02:40.064Z,67.56
2019-05-21T16:05:08.363Z,67.60
2019-05-21T16:07:36.435Z,67.56
2019-05-21T16:10:06.074Z,67.49
2019-05-21T16:12:34.248Z,67.42
2019-05-21T16:15:28.713Z,67.41
2019-05-21T16:18:04.811Z,67.43
2019-05-21T16:20:33.028Z,67.36
2019-05-21T16:23:01.040Z,67.30
2019-05-21T16:25:29.194Z,67.23
2019-05-21T16:27:57.228Z,67.18
2019-05-21T16:30:25.333Z,67.15
2019-05-21T16:32:53.397Z,67.18
2019-05-21T16:35:21.863Z,67.15
2019-05-21T16:37:50.199Z,67.15
2019-05-21T16:40:18.550Z,67.13
2019-05-21T16:42:46.846Z,67.03
2019-05-21T16:45:15.253Z,66.93
2019-05-21T16:47:46.318Z,66.86
2019-05-21T16:50:13.987Z,66.83
2019-05-21T16:52:42.220Z,66.83
2019-05-21T16:55:10.496Z,66.76
2019-05-21T16:57:38.767Z,66.68
2019-05-21T17:00:09.014Z,66.70
2019-05-21T17:02:36.973Z,66.73
2019-05-21T17:05:05.461Z,66.73
2019-05-21T17:07:33.447Z,66.74
2019-05-21T17:10:01.597Z,66.67
2019-05-21T17:12:30.959Z,66.64
2019-05-21T17:14:59.165Z,66.58
2019-05-21T17:17:27.449Z,66.57
2019-05-21T17:19:55.512Z,66.52
2019-05-21T17:22:23.995Z,66.48
2019-05-21T17:24:52.124Z,66.46
2019-05-21T17:27:20.185Z,66.44
2019-05-21T17:29:48.484Z,66.40
2019-05-21T17:32:16.647Z,66.35
2019-05-21T17:34:44.706Z,66.29
2019-05-21T17:37:12.889Z,66.20
2019-05-21T17:39:40.947Z,66.15
2019-05-21T17:42:15.415Z,66.11
2019-05-21T17:44:39.709Z,66.13
2019-05-21T17:47:07.943Z,66.14
2019-05-21T17:49:35.955Z,66.16
2019-05-21T17:52:05.088Z,66.16
2019-05-21T17:54:34.081Z,66.15
2019-05-21T17:57:02.405Z,66.15
2019-05-21T17:59:30.395Z,66.17
2019-05-21T18:02:00.757Z,66.12
2019-05-21T18:04:30.156Z,66.10
2019-05-21T18:06:59.224Z,66.04
2019-05-21T18:09:28.546Z,65.99
2019-05-21T18:11:57.447Z,65.96
2019-05-21T18:14:25.895Z,65.97
2019-05-21T18:16:54.353Z,65.99
2019-05-21T18:19:23.829Z,65.99
2019-05-21T18:21:53.524Z,66.02
2019-05-21T18:24:21.837Z,66.01
2019-05-21T18:26:50.422Z,66.01
2019-05-21T18:29:18.535Z,66.00
2019-05-21T18:31:47.719Z,65.97
2019-05-21T18:34:16.510Z,65.90
2019-05-21T18:36:44.600Z,65.84
2019-05-21T18:39:12.749Z,65.84
2019-05-21T18:41:40.820Z,65.87
2019-05-21T18:44:09.083Z,65.89
2019-05-21T18:46:37.051Z,65.91
2019-05-21T18:49:05.137Z,65.87
2019-05-21T18:51:33.093Z,65.91
2019-05-21T18:54:01.704Z,65.91
2019-05-21T18:56:31.487Z,65.94
2019-05-21T18:59:00.103Z,65.93
2019-05-21T19:01:28.261Z,65.92
2019-05-21T19:03:56.732Z,65.92
2019-05-21T19:06:24.849Z,65.93
2019-05-21T19:08:53.212Z,65.91
2019-05-21T19:11:22.781Z,65.91
2019-05-21T19:13:51.102Z,65.89
2019-05-21T19:16:19.127Z,65.90
2019-05-21T19:18:47.211Z,65.90
2019-05-21T19:21:15.260Z,65.89
2019-05-21T19:23:43.546Z,65.88
2019-05-21T19:26:11.428Z,65.87
2019-05-21T19:28:39.663Z,65.84
2019-05-21T19:31:07.918Z,65.84
2019-05-21T19:33:35.987Z,65.86
2019-05-21T19:36:05.224Z,65.89
2019-05-21T19:38:36.969Z,65.92
2019-05-21T19:41:03.417Z,65.97
2019-05-21T19:43:31.571Z,66.02
2019-05-21T19:45:59.933Z,66.04
2019-05-21T19:48:28.319Z,66.08
2019-05-21T19:51:00.085Z,66.10
2019-05-21T19:53:27.013Z,66.15
2019-05-21T19:55:55.514Z,66.14
2019-05-21T19:58:25.284Z,66.19
2019-05-21T20:00:54.207Z,66.25
2019-05-21T20:03:22.658Z,66.30
2019-05-21T20:05:51.220Z,66.37
2019-05-21T20:08:19.199Z,66.41
2019-05-21T20:10:48.249Z,66.45
2019-05-21T20:13:16.337Z,66.46
2019-05-21T20:15:45.187Z,66.47
2019-05-21T20:18:15.383Z,66.44
2019-05-21T20:20:44.180Z,66.45
2019-05-21T20:23:13.116Z,66.47
2019-05-21T20:25:55.267Z,66.52
2019-05-21T20:28:11.391Z,66.54
2019-05-21T20:30:44.651Z,66.55
2019-05-21T20:33:13.936Z,66.53
2019-05-21T20:35:42.094Z,66.56
2019-05-21T20:38:11.589Z,66.55
2019-05-21T20:40:40.220Z,66.52
2019-05-21T20:43:11.465Z,66.48
2019-05-21T20:45:42.885Z,66.48
2019-05-21T20:48:13.098Z,66.49
2019-05-21T20:50:41.862Z,66.53
2019-05-21T20:53:10.198Z,66.52
2019-05-21T20:55:38.456Z,66.49
2019-05-21T20:58:10.874Z,66.50
2019-05-21T21:00:42.703Z,66.56
2019-05-21T21:03:11.525Z,66.58
2019-05-21T21:05:40.839Z,66.64
2019-05-21T21:08:10.052Z,66.69
2019-05-21T21:10:38.344Z,66.72
2019-05-21T21:13:08.157Z,66.76
2019-05-21T21:15:36.775Z,66.78
2019-05-21T21:18:07.001Z,66.82
2019-05-21T21:20:35.293Z,66.82
2019-05-21T21:23:03.431Z,66.84
2019-05-21T21:25:31.869Z,66.86
2019-05-21T21:28:00.184Z,66.88
2019-05-21T21:30:28.541Z,66.90
2019-05-21T21:32:57.173Z,66.88
2019-05-21T21:35:25.299Z,66.92
2019-05-21T21:37:53.619Z,66.91
2019-05-21T21:40:23.454Z,66.87
2019-05-21T21:42:51.950Z,66.87
2019-05-21T21:45:21.303Z,66.90
2019-05-21T21:47:49.498Z,66.89
2019-05-21T21:50:18.608Z,66.92
2019-05-21T21:52:46.925Z,66.92
2019-05-21T21:55:15.764Z,66.94
2019-05-21T21:57:43.882Z,66.93
2019-05-21T22:01:23.474Z,66.97
2019-05-21T22:03:52.451Z,66.97
2019-05-21T22:06:21.798Z,66.99
2019-05-21T22:08:50.019Z,67.00
2019-05-21T22:11:19.514Z,66.99
2019-05-21T22:13:48.215Z,66.97
2019-05-21T22:16:18.213Z,66.95
2019-05-21T22:18:46.618Z,66.96
2019-05-21T22:21:15.533Z,66.96
2019-05-21T22:23:43.918Z,66.95
2019-05-21T22:26:12.711Z,66.96
2019-05-21T22:28:40.799Z,66.99
2019-05-21T22:31:08.916Z,67.01
2019-05-21T22:33:37.137Z,67.02
2019-05-21T22:36:05.162Z,67.01
2019-05-21T22:38:36.156Z,67.04
2019-05-21T22:41:04.178Z,67.08
2019-05-21T22:43:32.480Z,67.12
2019-05-21T22:46:00.531Z,67.15
2019-05-21T22:48:28.660Z,67.15
2019-05-21T22:50:57.163Z,67.17
2019-05-21T22:53:26.601Z,67.18
2019-05-21T22:55:54.736Z,67.23
2019-05-21T22:58:22.895Z,67.23
2019-05-21T23:00:52.627Z,67.25
2019-05-21T23:03:21.045Z,67.26
2019-05-21T23:05:49.346Z,67.28
2019-05-21T23:08:18.915Z,67.30
2019-05-21T23:10:47.105Z,67.27
2019-05-21T23:13:15.134Z,67.29
2019-05-21T23:15:44.584Z,67.30
2019-05-21T23:18:24.933Z,67.29
2019-05-21T23:21:14.355Z,67.29
2019-05-21T23:23:44.010Z,67.25
2019-05-21T23:26:13.148Z,67.26
2019-05-21T23:28:41.633Z,67.27
2019-05-21T23:31:12.137Z,67.27
2019-05-21T23:33:41.565Z,67.27
2019-05-21T23:36:10.285Z,67.26
2019-05-21T23:38:38.368Z,67.23
2019-05-21T23:41:08.181Z,67.22
2019-05-21T23:43:36.559Z,67.21
2019-05-21T23:46:04.952Z,67.19
2019-05-21T23:48:34.847Z,67.18
2019-05-21T23:51:03.278Z,67.15
2019-05-21T23:53:32.162Z,67.13
2019-05-21T23:56:00.735Z,67.12
2019-05-21T23:58:28.969Z,67.08
